Air Sicilia Virtual Airways - Route

Air Sicilia Virtual Airways - SIC200L

( IT ) LIBF
Foggia - Gino Lisa Airport
FOGGIA ( FOG )
plane_to ( IT ) LIRI
Salerno Costa d'Amalfi Airport
SALERNO ( QSR )
IVAO VFR ITALY 2018 - LEG: 9

AIRPORT NEAR NAVIGATION AIDS

Type Name Frequency
VOR Foggia 114200 KHZ
NDB Foggia 340 KHZ

METAR / TAF
LIBF 191550Z 25018KT 9999 FEW050 20/10 Q1005

RUNWAY INFORMATION

Runway Runway length Runway width Runway elevation Runway displaced threshold Runway heading
16 4724 148 260 0 156
34 4724 148 265 384 336

AIRPORT FREQUENCIES

Type Name Frequency
AFIS FOGGIA INF 120.1 MHZ
APP AMENDOLA A 118.85 MHZ

AIRPORT NEAR NAVIGATION AIDS

Type Name Frequency

METAR / TAF
LIRI 191450Z 21017KT 9999 FEW030 18/13 Q1007

RUNWAY INFORMATION

Runway Runway length Runway width Runway elevation Runway displaced threshold Runway heading
05 4577 148 82 0 48
23 4577 148 119 312 228

AIRPORT FREQUENCIES

Type Name Frequency
AFIS SALERNO IN 119.175 MHZ

Flightplan

via LUCERA - PIETRALCINA - BENEVENTO - GENZANO LUCANIA - POTENZA - BATTIPAGLIA

Air Sicilia Virtual Airways Fleets

AVAILABLE AIRCRAFTS for route at this time in Foggia - Gino Lisa Airport
C172 - Cessna 172 Skyhawk
( US ) Cessna

Aircraft in fleet: 13

C208 - Cessna 208 Caravan
( US ) Cessna

Aircraft in fleet: 13

PC12 - Pilatus PC12 Eagle
( CH ) Pilatus

Aircraft in fleet: 4

160 NM

Distance in nautical miles.

€ 200,00

Ticket price for this flight.

Nr. 9

Leg



12-11-2018
Aerosoft Airport Rio de Janeiro International V2.0 XP

L'Aeroporto Internazionale di Rio de Janeiro-Galeão (IATA: GIG, ICAO: SBGL), costruito nel 1952 nel quartiere di Ilha do Governador ed intitolato al musicista Antônio Carlos Jobim, è il principale aeroporto internazio ....


15-10-2018
Aerosoft A320 Family professional

La gamma di aeromobili A320 è una delle più comuni nei cieli. Questi aerei di linea a doppio-getto a corto e medio raggio si sono dimostrati convenienti, affidabili e prontamente disponibili, rendendoli le opzioni migl ....


10-10-2018
Motore critico ( Critical Engine )

Il motore critico di un velivolo ad ala fissa multi-motore è il motore che, in caso di guasto, influirebbe negativamente sulle prestazioni o sulla capacità di manovra di un aereo. Sui velivoli ad elica, vi è un ....


04-10-2018
Aerosoft Dortmund XP

Scopri il centro della regione della Ruhr su XPlane 11 - lo scenario Dortmund XP è una ricostruzione completa della città di Dortmund per il simulatore di volo targato Laminar. Oltre all'intera area urbana di Dortmu ....


07-08-2018
Aerosoft Professional Flight Planner PFPX

PFPX - Professional Flight Planner X - è un nuovo ed innovativo strumento di pianificazione del volo sviluppato da piloti e dispatcher del mondo reale. È un'aggiunta preziosa e realistica alla tua esperienza di simulaz ....